sensor_id;sensor_type;location;lat;lon;timestamp;P1;durP1;ratioP1;P2;durP2;ratioP2
1370;SDS011;14306;49.942;11.570;2023-03-01T00:01:51;25.52;;;13.30;;
1370;SDS011;14306;49.942;11.570;2023-03-01T00:04:19;21.58;;;11.77;;
1370;SDS011;14306;49.942;11.570;2023-03-01T00:06:48;25.45;;;14.15;;
1370;SDS011;14306;49.942;11.570;2023-03-01T00:09:16;20.10;;;12.32;;
1370;SDS011;14306;49.942;11.570;2023-03-01T00:11:45;28.15;;;14.45;;
1370;SDS011;14306;49.942;11.570;2023-03-01T00:14:14;25.10;;;12.63;;
1370;SDS011;14306;49.942;11.570;2023-03-01T00:16:44;22.80;;;11.55;;
1370;SDS011;14306;49.942;11.570;2023-03-01T00:19:15;26.25;;;12.73;;
1370;SDS011;14306;49.942;11.570;2023-03-01T00:21:44;27.70;;;13.82;;
1370;SDS011;14306;49.942;11.570;2023-03-01T00:24:13;30.02;;;14.02;;
1370;SDS011;14306;49.942;11.570;2023-03-01T00:26:42;23.20;;;12.05;;
1370;SDS011;14306;49.942;11.570;2023-03-01T00:29:11;21.20;;;12.55;;
1370;SDS011;14306;49.942;11.570;2023-03-01T00:31:40;24.23;;;12.10;;
1370;SDS011;14306;49.942;11.570;2023-03-01T00:34:08;24.38;;;14.07;;
1370;SDS011;14306;49.942;11.570;2023-03-01T00:36:39;24.23;;;12.57;;
1370;SDS011;14306;49.942;11.570;2023-03-01T00:39:08;25.80;;;12.88;;
1370;SDS011;14306;49.942;11.570;2023-03-01T00:41:40;23.13;;;11.90;;
1370;SDS011;14306;49.942;11.570;2023-03-01T00:44:08;21.88;;;13.25;;
1370;SDS011;14306;49.942;11.570;2023-03-01T00:46:37;26.60;;;13.98;;
1370;SDS011;14306;49.942;11.570;2023-03-01T00:49:06;24.23;;;14.73;;
1370;SDS011;14306;49.942;11.570;2023-03-01T00:51:34;23.88;;;13.45;;
1370;SDS011;14306;49.942;11.570;2023-03-01T00:54:04;26.27;;;13.55;;
1370;SDS011;14306;49.942;11.570;2023-03-01T00:56:33;29.58;;;13.77;;
1370;SDS011;14306;49.942;11.570;2023-03-01T00:59:01;24.63;;;13.07;;
1370;SDS011;14306;49.942;11.570;2023-03-01T01:01:30;25.02;;;12.32;;
1370;SDS011;14306;49.942;11.570;2023-03-01T01:04:00;21.30;;;13.82;;
1370;SDS011;14306;49.942;11.570;2023-03-01T01:06:31;21.92;;;12.70;;
1370;SDS011;14306;49.942;11.570;2023-03-01T01:09:04;24.98;;;12.95;;
1370;SDS011;14306;49.942;11.570;2023-03-01T01:11:34;26.95;;;14.27;;
1370;SDS011;14306;49.942;11.570;2023-03-01T01:14:04;23.00;;;12.10;;
1370;SDS011;14306;49.942;11.570;2023-03-01T01:16:32;28.17;;;13.93;;
1370;SDS011;14306;49.942;11.570;2023-03-01T01:19:00;26.85;;;14.45;;
1370;SDS011;14306;49.942;11.570;2023-03-01T01:21:29;23.00;;;14.57;;
1370;SDS011;14306;49.942;11.570;2023-03-01T01:23:59;25.27;;;13.73;;
1370;SDS011;14306;49.942;11.570;2023-03-01T01:26:29;24.75;;;14.13;;
1370;SDS011;14306;49.942;11.570;2023-03-01T01:29:00;28.13;;;14.05;;
1370;SDS011;14306;49.942;11.570;2023-03-01T01:31:29;24.98;;;13.05;;
1370;SDS011;14306;49.942;11.570;2023-03-01T01:33:58;19.23;;;12.07;;
1370;SDS011;14306;49.942;11.570;2023-03-01T01:36:28;21.67;;;12.05;;
1370;SDS011;14306;49.942;11.570;2023-03-01T01:38:57;20.55;;;13.70;;
1370;SDS011;14306;49.942;11.570;2023-03-01T01:41:25;26.25;;;13.55;;
1370;SDS011;14306;49.942;11.570;2023-03-01T01:44:14;23.83;;;12.95;;
1370;SDS011;14306;49.942;11.570;2023-03-01T01:46:45;24.95;;;13.15;;
1370;SDS011;14306;49.942;11.570;2023-03-01T01:49:27;25.02;;;13.80;;
1370;SDS011;14306;49.942;11.570;2023-03-01T01:52:01;21.98;;;13.18;;
1370;SDS011;14306;49.942;11.570;2023-03-01T01:54:37;21.75;;;12.57;;
1370;SDS011;14306;49.942;11.570;2023-03-01T01:57:12;20.20;;;12.18;;
1370;SDS011;14306;49.942;11.570;2023-03-01T01:59:46;27.83;;;12.52;;
1370;SDS011;14306;49.942;11.570;2023-03-01T02:02:20;23.08;;;12.05;;
1370;SDS011;14306;49.942;11.570;2023-03-01T02:04:49;23.83;;;13.13;;
1370;SDS011;14306;49.942;11.570;2023-03-01T02:07:23;22.80;;;12.73;;
1370;SDS011;14306;49.942;11.570;2023-03-01T02:09:52;25.23;;;13.00;;
1370;SDS011;14306;49.942;11.570;2023-03-01T02:12:21;24.95;;;13.80;;
1370;SDS011;14306;49.942;11.570;2023-03-01T02:14:54;24.27;;;14.60;;
1370;SDS011;14306;49.942;11.570;2023-03-01T02:17:21;25.27;;;13.10;;
1370;SDS011;14306;49.942;11.570;2023-03-01T02:19:53;22.38;;;12.88;;
1370;SDS011;14306;49.942;11.570;2023-03-01T02:22:34;28.38;;;13.45;;
1370;SDS011;14306;49.942;11.570;2023-03-01T02:25:07;20.45;;;12.80;;
1370;SDS011;14306;49.942;11.570;2023-03-01T02:27:48;29.27;;;13.20;;
1370;SDS011;14306;49.942;11.570;2023-03-01T02:30:23;25.20;;;13.15;;
1370;SDS011;14306;49.942;11.570;2023-03-01T02:32:54;22.77;;;11.93;;
1370;SDS011;14306;49.942;11.570;2023-03-01T02:35:29;22.63;;;12.32;;
1370;SDS011;14306;49.942;11.570;2023-03-01T02:38:01;22.92;;;12.05;;
1370;SDS011;14306;49.942;11.570;2023-03-01T02:40:30;24.20;;;13.10;;
1370;SDS011;14306;49.942;11.570;2023-03-01T02:43:02;24.17;;;12.65;;
1370;SDS011;14306;49.942;11.570;2023-03-01T02:45:37;23.75;;;12.95;;
1370;SDS011;14306;49.942;11.570;2023-03-01T02:48:10;24.30;;;12.55;;
1370;SDS011;14306;49.942;11.570;2023-03-01T02:50:44;30.10;;;15.70;;
1370;SDS011;14306;49.942;11.570;2023-03-01T02:53:21;25.70;;;13.05;;
1370;SDS011;14306;49.942;11.570;2023-03-01T02:55:56;28.48;;;12.75;;
1370;SDS011;14306;49.942;11.570;2023-03-01T02:58:26;24.88;;;12.38;;
1370;SDS011;14306;49.942;11.570;2023-03-01T03:00:55;26.20;;;12.85;;
1370;SDS011;14306;49.942;11.570;2023-03-01T03:03:27;25.42;;;12.20;;
1370;SDS011;14306;49.942;11.570;2023-03-01T03:05:55;20.48;;;12.63;;
1370;SDS011;14306;49.942;11.570;2023-03-01T03:08:23;24.48;;;13.10;;
1370;SDS011;14306;49.942;11.570;2023-03-01T03:10:52;25.50;;;13.23;;
1370;SDS011;14306;49.942;11.570;2023-03-01T03:13:20;20.33;;;11.80;;
1370;SDS011;14306;49.942;11.570;2023-03-01T03:15:48;21.95;;;12.13;;
1370;SDS011;14306;49.942;11.570;2023-03-01T03:18:19;22.85;;;12.43;;
1370;SDS011;14306;49.942;11.570;2023-03-01T03:20:47;25.63;;;13.98;;
1370;SDS011;14306;49.942;11.570;2023-03-01T03:23:19;21.55;;;11.65;;
1370;SDS011;14306;49.942;11.570;2023-03-01T03:25:48;29.08;;;14.32;;
1370;SDS011;14306;49.942;11.570;2023-03-01T03:28:17;24.30;;;13.13;;
1370;SDS011;14306;49.942;11.570;2023-03-01T03:30:46;23.00;;;12.98;;
1370;SDS011;14306;49.942;11.570;2023-03-01T03:33:14;25.92;;;13.68;;
1370;SDS011;14306;49.942;11.570;2023-03-01T03:35:46;28.88;;;14.32;;
1370;SDS011;14306;49.942;11.570;2023-03-01T03:38:17;26.17;;;14.98;;
1370;SDS011;14306;49.942;11.570;2023-03-01T03:40:48;23.33;;;12.27;;
1370;SDS011;14306;49.942;11.570;2023-03-01T03:43:19;24.20;;;12.52;;
1370;SDS011;14306;49.942;11.570;2023-03-01T03:45:50;29.15;;;14.18;;
1370;SDS011;14306;49.942;11.570;2023-03-01T03:48:19;24.50;;;13.80;;
1370;SDS011;14306;49.942;11.570;2023-03-01T03:50:50;25.48;;;13.43;;
1370;SDS011;14306;49.942;11.570;2023-03-01T03:53:20;28.33;;;14.52;;
1370;SDS011;14306;49.942;11.570;2023-03-01T03:55:49;33.83;;;15.90;;
1370;SDS011;14306;49.942;11.570;2023-03-01T03:58:18;24.20;;;13.32;;
1370;SDS011;14306;49.942;11.570;2023-03-01T04:00:49;25.05;;;13.70;;
1370;SDS011;14306;49.942;11.570;2023-03-01T04:03:19;24.55;;;14.32;;
1370;SDS011;14306;49.942;11.570;2023-03-01T04:05:50;29.48;;;13.63;;
1370;SDS011;14306;49.942;11.570;2023-03-01T04:08:19;25.30;;;13.75;;
1370;SDS011;14306;49.942;11.570;2023-03-01T04:10:49;28.98;;;14.50;;
1370;SDS011;14306;49.942;11.570;2023-03-01T04:13:20;29.90;;;13.98;;
1370;SDS011;14306;49.942;11.570;2023-03-01T04:15:49;28.42;;;14.05;;
1370;SDS011;14306;49.942;11.570;2023-03-01T04:18:18;26.60;;;14.93;;
1370;SDS011;14306;49.942;11.570;2023-03-01T04:20:50;33.20;;;14.88;;
1370;SDS011;14306;49.942;11.570;2023-03-01T04:23:21;33.53;;;15.85;;
1370;SDS011;14306;49.942;11.570;2023-03-01T04:25:53;33.40;;;17.15;;
1370;SDS011;14306;49.942;11.570;2023-03-01T04:28:24;29.25;;;16.17;;
1370;SDS011;14306;49.942;11.570;2023-03-01T04:30:54;32.10;;;15.63;;
1370;SDS011;14306;49.942;11.570;2023-03-01T04:33:24;27.23;;;14.27;;
1370;SDS011;14306;49.942;11.570;2023-03-01T04:35:54;30.27;;;15.40;;
1370;SDS011;14306;49.942;11.570;2023-03-01T04:38:24;28.73;;;14.93;;
1370;SDS011;14306;49.942;11.570;2023-03-01T04:40:55;25.33;;;14.85;;
1370;SDS011;14306;49.942;11.570;2023-03-01T04:43:23;27.63;;;14.75;;
1370;SDS011;14306;49.942;11.570;2023-03-01T04:45:52;32.58;;;15.98;;
1370;SDS011;14306;49.942;11.570;2023-03-01T04:48:20;34.10;;;15.57;;
1370;SDS011;14306;49.942;11.570;2023-03-01T04:50:49;29.48;;;15.40;;
1370;SDS011;14306;49.942;11.570;2023-03-01T04:53:19;35.25;;;15.88;;
1370;SDS011;14306;49.942;11.570;2023-03-01T04:55:47;29.17;;;16.50;;
1370;SDS011;14306;49.942;11.570;2023-03-01T04:58:16;28.90;;;14.85;;
1370;SDS011;14306;49.942;11.570;2023-03-01T05:00:44;34.85;;;17.35;;
1370;SDS011;14306;49.942;11.570;2023-03-01T05:03:12;29.70;;;16.65;;
1370;SDS011;14306;49.942;11.570;2023-03-01T05:05:45;33.10;;;16.70;;
1370;SDS011;14306;49.942;11.570;2023-03-01T05:08:15;32.35;;;16.48;;
1370;SDS011;14306;49.942;11.570;2023-03-01T05:10:47;36.90;;;16.92;;
1370;SDS011;14306;49.942;11.570;2023-03-01T05:13:17;31.58;;;16.95;;
1370;SDS011;14306;49.942;11.570;2023-03-01T05:15:48;35.38;;;16.30;;
1370;SDS011;14306;49.942;11.570;2023-03-01T05:18:21;44.17;;;20.50;;
1370;SDS011;14306;49.942;11.570;2023-03-01T05:20:52;32.55;;;17.58;;
1370;SDS011;14306;49.942;11.570;2023-03-01T05:23:25;33.40;;;18.38;;
1370;SDS011;14306;49.942;11.570;2023-03-01T05:25:56;36.35;;;17.85;;
1370;SDS011;14306;49.942;11.570;2023-03-01T05:28:26;31.13;;;18.80;;
1370;SDS011;14306;49.942;11.570;2023-03-01T05:30:54;32.72;;;17.38;;
1370;SDS011;14306;49.942;11.570;2023-03-01T05:33:23;33.83;;;17.73;;
1370;SDS011;14306;49.942;11.570;2023-03-01T05:35:53;32.53;;;16.33;;
1370;SDS011;14306;49.942;11.570;2023-03-01T05:38:21;32.75;;;16.15;;
1370;SDS011;14306;49.942;11.570;2023-03-01T05:40:49;37.15;;;15.52;;
1370;SDS011;14306;49.942;11.570;2023-03-01T05:43:20;34.70;;;15.20;;
1370;SDS011;14306;49.942;11.570;2023-03-01T05:45:48;28.33;;;15.43;;
1370;SDS011;14306;49.942;11.570;2023-03-01T05:48:17;32.97;;;16.83;;
1370;SDS011;14306;49.942;11.570;2023-03-01T05:50:47;30.40;;;16.08;;
1370;SDS011;14306;49.942;11.570;2023-03-01T05:53:16;36.63;;;17.85;;
1370;SDS011;14306;49.942;11.570;2023-03-01T05:55:47;31.63;;;16.25;;
1370;SDS011;14306;49.942;11.570;2023-03-01T05:58:16;38.00;;;17.65;;
1370;SDS011;14306;49.942;11.570;2023-03-01T06:00:48;34.42;;;16.90;;
1370;SDS011;14306;49.942;11.570;2023-03-01T06:03:20;49.42;;;21.30;;
1370;SDS011;14306;49.942;11.570;2023-03-01T06:05:48;51.47;;;22.95;;
1370;SDS011;14306;49.942;11.570;2023-03-01T06:08:16;45.38;;;19.58;;
1370;SDS011;14306;49.942;11.570;2023-03-01T06:10:47;40.10;;;21.65;;
1370;SDS011;14306;49.942;11.570;2023-03-01T06:13:15;41.83;;;21.77;;
1370;SDS011;14306;49.942;11.570;2023-03-01T06:15:43;41.50;;;21.38;;
1370;SDS011;14306;49.942;11.570;2023-03-01T06:18:14;30.33;;;17.70;;
1370;SDS011;14306;49.942;11.570;2023-03-01T06:20:42;44.15;;;20.13;;
1370;SDS011;14306;49.942;11.570;2023-03-01T06:23:13;43.00;;;21.05;;
1370;SDS011;14306;49.942;11.570;2023-03-01T06:25:41;40.08;;;18.30;;
1370;SDS011;14306;49.942;11.570;2023-03-01T06:28:13;36.55;;;19.75;;
1370;SDS011;14306;49.942;11.570;2023-03-01T06:30:42;35.25;;;18.98;;
1370;SDS011;14306;49.942;11.570;2023-03-01T06:33:15;32.45;;;17.58;;
1370;SDS011;14306;49.942;11.570;2023-03-01T06:35:46;35.88;;;17.55;;
1370;SDS011;14306;49.942;11.570;2023-03-01T06:38:15;41.55;;;19.25;;
1370;SDS011;14306;49.942;11.570;2023-03-01T06:40:45;42.70;;;20.77;;
1370;SDS011;14306;49.942;11.570;2023-03-01T06:43:21;44.45;;;22.33;;
1370;SDS011;14306;49.942;11.570;2023-03-01T06:45:50;39.10;;;21.63;;
1370;SDS011;14306;49.942;11.570;2023-03-01T06:48:21;40.10;;;21.20;;
1370;SDS011;14306;49.942;11.570;2023-03-01T06:50:50;38.27;;;20.17;;
1370;SDS011;14306;49.942;11.570;2023-03-01T06:53:19;38.57;;;19.60;;
1370;SDS011;14306;49.942;11.570;2023-03-01T06:55:53;32.23;;;19.40;;
1370;SDS011;14306;49.942;11.570;2023-03-01T06:58:23;33.57;;;19.17;;
1370;SDS011;14306;49.942;11.570;2023-03-01T07:00:54;38.30;;;20.77;;
1370;SDS011;14306;49.942;11.570;2023-03-01T07:03:25;29.83;;;18.70;;
1370;SDS011;14306;49.942;11.570;2023-03-01T07:05:55;29.60;;;17.40;;
1370;SDS011;14306;49.942;11.570;2023-03-01T07:08:24;35.90;;;18.80;;
1370;SDS011;14306;49.942;11.570;2023-03-01T07:10:54;28.20;;;17.80;;
1370;SDS011;14306;49.942;11.570;2023-03-01T07:13:24;26.60;;;15.47;;
1370;SDS011;14306;49.942;11.570;2023-03-01T07:15:52;30.00;;;18.10;;
1370;SDS011;14306;49.942;11.570;2023-03-01T07:18:25;32.47;;;17.73;;
1370;SDS011;14306;49.942;11.570;2023-03-01T07:20:54;30.67;;;18.83;;
1370;SDS011;14306;49.942;11.570;2023-03-01T07:23:23;46.87;;;20.17;;
1370;SDS011;14306;49.942;11.570;2023-03-01T07:25:52;37.43;;;19.43;;
1370;SDS011;14306;49.942;11.570;2023-03-01T07:28:22;60.20;;;23.20;;
1370;SDS011;14306;49.942;11.570;2023-03-01T07:30:51;42.30;;;22.13;;
1370;SDS011;14306;49.942;11.570;2023-03-01T07:33:21;39.83;;;19.63;;
1370;SDS011;14306;49.942;11.570;2023-03-01T07:35:57;31.67;;;19.10;;
1370;SDS011;14306;49.942;11.570;2023-03-01T07:38:25;32.33;;;19.80;;
1370;SDS011;14306;49.942;11.570;2023-03-01T07:40:57;38.47;;;18.97;;
1370;SDS011;14306;49.942;11.570;2023-03-01T07:43:26;31.47;;;19.13;;
1370;SDS011;14306;49.942;11.570;2023-03-01T07:45:57;26.13;;;17.97;;
1370;SDS011;14306;49.942;11.570;2023-03-01T07:48:28;27.73;;;19.30;;
1370;SDS011;14306;49.942;11.570;2023-03-01T07:51:00;31.20;;;19.00;;
1370;SDS011;14306;49.942;11.570;2023-03-01T07:53:29;34.27;;;17.13;;
1370;SDS011;14306;49.942;11.570;2023-03-01T07:56:01;32.50;;;19.37;;
1370;SDS011;14306;49.942;11.570;2023-03-01T07:58:33;25.10;;;15.70;;
1370;SDS011;14306;49.942;11.570;2023-03-01T08:01:02;27.67;;;18.10;;
1370;SDS011;14306;49.942;11.570;2023-03-01T08:03:31;31.63;;;16.93;;
1370;SDS011;14306;49.942;11.570;2023-03-01T08:06:01;30.27;;;19.27;;
1370;SDS011;14306;49.942;11.570;2023-03-01T08:08:31;28.27;;;16.70;;
1370;SDS011;14306;49.942;11.570;2023-03-01T08:11:00;26.47;;;17.13;;
1370;SDS011;14306;49.942;11.570;2023-03-01T08:13:31;32.33;;;16.87;;
1370;SDS011;14306;49.942;11.570;2023-03-01T08:16:01;30.60;;;16.50;;
1370;SDS011;14306;49.942;11.570;2023-03-01T08:18:31;42.70;;;20.53;;
1370;SDS011;14306;49.942;11.570;2023-03-01T08:21:05;25.30;;;16.70;;
1370;SDS011;14306;49.942;11.570;2023-03-01T08:23:36;34.47;;;18.10;;
1370;SDS011;14306;49.942;11.570;2023-03-01T08:26:06;24.80;;;16.47;;
1370;SDS011;14306;49.942;11.570;2023-03-01T08:28:37;23.20;;;16.27;;
1370;SDS011;14306;49.942;11.570;2023-03-01T08:31:16;29.07;;;16.90;;
1370;SDS011;14306;49.942;11.570;2023-03-01T08:33:49;34.13;;;18.90;;
1370;SDS011;14306;49.942;11.570;2023-03-01T08:36:23;33.17;;;17.90;;
1370;SDS011;14306;49.942;11.570;2023-03-01T08:38:54;29.50;;;18.20;;
1370;SDS011;14306;49.942;11.570;2023-03-01T08:41:22;25.37;;;16.60;;
1370;SDS011;14306;49.942;11.570;2023-03-01T08:43:51;26.20;;;17.63;;
1370;SDS011;14306;49.942;11.570;2023-03-01T08:46:25;33.93;;;17.30;;
1370;SDS011;14306;49.942;11.570;2023-03-01T08:48:55;22.93;;;16.63;;
1370;SDS011;14306;49.942;11.570;2023-03-01T08:51:25;30.40;;;17.10;;
1370;SDS011;14306;49.942;11.570;2023-03-01T08:53:56;34.20;;;18.13;;
1370;SDS011;14306;49.942;11.570;2023-03-01T08:56:24;27.30;;;16.33;;
1370;SDS011;14306;49.942;11.570;2023-03-01T08:58:53;28.57;;;15.30;;
1370;SDS011;14306;49.942;11.570;2023-03-01T09:01:23;25.20;;;16.50;;
1370;SDS011;14306;49.942;11.570;2023-03-01T09:03:51;22.57;;;15.60;;
1370;SDS011;14306;49.942;11.570;2023-03-01T09:06:21;22.70;;;15.83;;
1370;SDS011;14306;49.942;11.570;2023-03-01T09:08:53;25.17;;;16.67;;
1370;SDS011;14306;49.942;11.570;2023-03-01T09:11:23;22.93;;;16.13;;
1370;SDS011;14306;49.942;11.570;2023-03-01T09:13:55;32.30;;;17.20;;
1370;SDS011;14306;49.942;11.570;2023-03-01T09:16:25;31.33;;;16.30;;
1370;SDS011;14306;49.942;11.570;2023-03-01T09:18:54;30.47;;;16.97;;
1370;SDS011;14306;49.942;11.570;2023-03-01T09:21:23;25.60;;;14.70;;
1370;SDS011;14306;49.942;11.570;2023-03-01T09:24:08;21.97;;;15.30;;
1370;SDS011;14306;49.942;11.570;2023-03-01T09:26:41;20.47;;;14.70;;
1370;SDS011;14306;49.942;11.570;2023-03-01T09:29:16;28.63;;;15.00;;
1370;SDS011;14306;49.942;11.570;2023-03-01T09:31:45;33.97;;;17.50;;
1370;SDS011;14306;49.942;11.570;2023-03-01T09:34:14;36.33;;;18.03;;
1370;SDS011;14306;49.942;11.570;2023-03-01T09:36:45;34.77;;;16.37;;
1370;SDS011;14306;49.942;11.570;2023-03-01T09:39:15;24.00;;;15.87;;
1370;SDS011;14306;49.942;11.570;2023-03-01T09:41:47;29.03;;;15.33;;
1370;SDS011;14306;49.942;11.570;2023-03-01T09:44:26;24.53;;;15.70;;
1370;SDS011;14306;49.942;11.570;2023-03-01T09:46:59;44.47;;;18.07;;
1370;SDS011;14306;49.942;11.570;2023-03-01T09:49:29;29.13;;;16.20;;
1370;SDS011;14306;49.942;11.570;2023-03-01T09:52:00;28.73;;;17.23;;
1370;SDS011;14306;49.942;11.570;2023-03-01T09:54:37;22.67;;;15.10;;
1370;SDS011;14306;49.942;11.570;2023-03-01T09:57:08;25.17;;;14.37;;
1370;SDS011;14306;49.942;11.570;2023-03-01T09:59:49;25.90;;;14.40;;
1370;SDS011;14306;49.942;11.570;2023-03-01T10:02:32;19.50;;;12.27;;
1370;SDS011;14306;49.942;11.570;2023-03-01T10:05:14;17.70;;;11.60;;
1370;SDS011;14306;49.942;11.570;2023-03-01T10:07:54;29.80;;;13.90;;
1370;SDS011;14306;49.942;11.570;2023-03-01T10:10:38;21.60;;;12.40;;
1370;SDS011;14306;49.942;11.570;2023-03-01T10:13:13;21.63;;;12.73;;
1370;SDS011;14306;49.942;11.570;2023-03-01T10:15:48;21.70;;;12.37;;
1370;SDS011;14306;49.942;11.570;2023-03-01T10:18:23;21.70;;;12.93;;
1370;SDS011;14306;49.942;11.570;2023-03-01T10:20:55;26.13;;;13.00;;
1370;SDS011;14306;49.942;11.570;2023-03-01T10:23:27;32.37;;;13.13;;
1370;SDS011;14306;49.942;11.570;2023-03-01T10:26:05;18.03;;;11.60;;
1370;SDS011;14306;49.942;11.570;2023-03-01T10:28:43;17.37;;;11.77;;
1370;SDS011;14306;49.942;11.570;2023-03-01T10:31:22;19.63;;;12.10;;
1370;SDS011;14306;49.942;11.570;2023-03-01T10:33:55;20.43;;;11.63;;
1370;SDS011;14306;49.942;11.570;2023-03-01T10:36:26;19.10;;;10.90;;
1370;SDS011;14306;49.942;11.570;2023-03-01T10:38:55;21.50;;;13.43;;
1370;SDS011;14306;49.942;11.570;2023-03-01T10:41:26;15.77;;;12.20;;
1370;SDS011;14306;49.942;11.570;2023-03-01T10:43:56;24.37;;;12.97;;
1370;SDS011;14306;49.942;11.570;2023-03-01T10:46:27;19.43;;;10.87;;
1370;SDS011;14306;49.942;11.570;2023-03-01T10:49:09;29.07;;;13.37;;
1370;SDS011;14306;49.942;11.570;2023-03-01T10:51:43;18.20;;;10.97;;
1370;SDS011;14306;49.942;11.570;2023-03-01T10:54:17;17.83;;;11.90;;
1370;SDS011;14306;49.942;11.570;2023-03-01T10:56:50;22.80;;;13.23;;
1370;SDS011;14306;49.942;11.570;2023-03-01T10:59:22;24.17;;;13.83;;
1370;SDS011;14306;49.942;11.570;2023-03-01T11:02:03;18.30;;;12.17;;
1370;SDS011;14306;49.942;11.570;2023-03-01T11:05:01;20.07;;;12.23;;
1370;SDS011;14306;49.942;11.570;2023-03-01T11:07:46;35.10;;;14.57;;
1370;SDS011;14306;49.942;11.570;2023-03-01T11:10:17;21.00;;;12.17;;
1370;SDS011;14306;49.942;11.570;2023-03-01T11:12:48;17.70;;;11.67;;
1370;SDS011;14306;49.942;11.570;2023-03-01T11:15:20;19.57;;;13.07;;
1370;SDS011;14306;49.942;11.570;2023-03-01T11:17:53;25.20;;;12.40;;
1370;SDS011;14306;49.942;11.570;2023-03-01T11:20:39;21.20;;;12.00;;
1370;SDS011;14306;49.942;11.570;2023-03-01T11:23:09;17.97;;;11.83;;
1370;SDS011;14306;49.942;11.570;2023-03-01T11:25:41;20.30;;;12.90;;
1370;SDS011;14306;49.942;11.570;2023-03-01T11:28:16;19.33;;;12.67;;
1370;SDS011;14306;49.942;11.570;2023-03-01T11:30:49;22.30;;;13.03;;
1370;SDS011;14306;49.942;11.570;2023-03-01T11:33:35;21.90;;;13.37;;
1370;SDS011;14306;49.942;11.570;2023-03-01T11:36:12;21.90;;;12.80;;
1370;SDS011;14306;49.942;11.570;2023-03-01T11:38:47;23.43;;;13.20;;
1370;SDS011;14306;49.942;11.570;2023-03-01T11:41:17;24.60;;;12.13;;
1370;SDS011;14306;49.942;11.570;2023-03-01T11:43:50;19.40;;;12.83;;
1370;SDS011;14306;49.942;11.570;2023-03-01T11:46:32;21.90;;;13.90;;
1370;SDS011;14306;49.942;11.570;2023-03-01T11:52:31;22.00;;;12.03;;
1370;SDS011;14306;49.942;11.570;2023-03-01T11:55:16;28.20;;;13.50;;
1370;SDS011;14306;49.942;11.570;2023-03-01T11:58:02;20.40;;;12.20;;
1370;SDS011;14306;49.942;11.570;2023-03-01T12:00:47;22.73;;;12.80;;
1370;SDS011;14306;49.942;11.570;2023-03-01T12:03:30;20.83;;;12.57;;
1370;SDS011;14306;49.942;11.570;2023-03-01T12:09:14;18.50;;;12.20;;
1370;SDS011;14306;49.942;11.570;2023-03-01T12:11:56;17.83;;;11.97;;
1370;SDS011;14306;49.942;11.570;2023-03-01T12:14:59;19.00;;;11.80;;
1370;SDS011;14306;49.942;11.570;2023-03-01T12:17:58;23.87;;;12.60;;
1370;SDS011;14306;49.942;11.570;2023-03-01T12:20:41;18.43;;;11.57;;
1370;SDS011;14306;49.942;11.570;2023-03-01T12:26:42;19.50;;;12.10;;
1370;SDS011;14306;49.942;11.570;2023-03-01T12:29:23;26.63;;;12.20;;
1370;SDS011;14306;49.942;11.570;2023-03-01T12:32:07;23.33;;;12.37;;
1370;SDS011;14306;49.942;11.570;2023-03-01T12:34:51;20.90;;;12.30;;
1370;SDS011;14306;49.942;11.570;2023-03-01T12:37:35;20.67;;;13.10;;
1370;SDS011;14306;49.942;11.570;2023-03-01T12:40:24;18.60;;;11.53;;
1370;SDS011;14306;49.942;11.570;2023-03-01T12:45:55;17.47;;;10.90;;
1370;SDS011;14306;49.942;11.570;2023-03-01T12:48:40;18.90;;;11.40;;
1370;SDS011;14306;49.942;11.570;2023-03-01T12:51:19;21.43;;;12.70;;
1370;SDS011;14306;49.942;11.570;2023-03-01T12:53:51;20.47;;;11.20;;
1370;SDS011;14306;49.942;11.570;2023-03-01T12:56:23;15.60;;;10.70;;
1370;SDS011;14306;49.942;11.570;2023-03-01T12:58:59;18.00;;;12.20;;
1370;SDS011;14306;49.942;11.570;2023-03-01T13:01:38;25.27;;;12.40;;
1370;SDS011;14306;49.942;11.570;2023-03-01T13:04:18;20.73;;;12.30;;
1370;SDS011;14306;49.942;11.570;2023-03-01T13:10:04;16.90;;;11.13;;
1370;SDS011;14306;49.942;11.570;2023-03-01T13:12:44;16.17;;;11.13;;
1370;SDS011;14306;49.942;11.570;2023-03-01T13:15:27;21.03;;;11.77;;
1370;SDS011;14306;49.942;11.570;2023-03-01T13:17:58;19.40;;;11.00;;
1370;SDS011;14306;49.942;11.570;2023-03-01T13:20:30;17.10;;;11.13;;
1370;SDS011;14306;49.942;11.570;2023-03-01T13:23:04;22.83;;;10.67;;
1370;SDS011;14306;49.942;11.570;2023-03-01T13:37:28;22.00;;;13.47;;
1370;SDS011;14306;49.942;11.570;2023-03-01T13:40:08;21.27;;;12.13;;
1370;SDS011;14306;49.942;11.570;2023-03-01T13:43:27;23.07;;;12.47;;
1370;SDS011;14306;49.942;11.570;2023-03-01T13:45:58;18.07;;;12.20;;
1370;SDS011;14306;49.942;11.570;2023-03-01T13:48:29;16.43;;;11.03;;
1370;SDS011;14306;49.942;11.570;2023-03-01T13:50:59;17.63;;;10.60;;
1370;SDS011;14306;49.942;11.570;2023-03-01T13:53:31;19.90;;;11.87;;
1370;SDS011;14306;49.942;11.570;2023-03-01T13:56:09;16.80;;;11.17;;
1370;SDS011;14306;49.942;11.570;2023-03-01T13:58:46;22.50;;;11.00;;
1370;SDS011;14306;49.942;11.570;2023-03-01T14:01:24;20.77;;;11.77;;
1370;SDS011;14306;49.942;11.570;2023-03-01T14:03:56;18.40;;;11.17;;
1370;SDS011;14306;49.942;11.570;2023-03-01T14:06:25;21.17;;;11.77;;
1370;SDS011;14306;49.942;11.570;2023-03-01T14:09:02;22.80;;;11.00;;
1370;SDS011;14306;49.942;11.570;2023-03-01T14:14:48;19.97;;;11.60;;
1370;SDS011;14306;49.942;11.570;2023-03-01T14:17:41;18.90;;;11.07;;
1370;SDS011;14306;49.942;11.570;2023-03-01T14:20:18;18.77;;;10.57;;
1370;SDS011;14306;49.942;11.570;2023-03-01T14:22:49;21.50;;;10.23;;
1370;SDS011;14306;49.942;11.570;2023-03-01T14:25:22;27.93;;;11.90;;
1370;SDS011;14306;49.942;11.570;2023-03-01T14:28:01;23.40;;;12.37;;
1370;SDS011;14306;49.942;11.570;2023-03-01T14:30:34;30.47;;;12.97;;
1370;SDS011;14306;49.942;11.570;2023-03-01T14:33:06;25.43;;;12.93;;
1370;SDS011;14306;49.942;11.570;2023-03-01T14:35:52;19.33;;;12.37;;
1370;SDS011;14306;49.942;11.570;2023-03-01T14:38:23;25.03;;;12.70;;
1370;SDS011;14306;49.942;11.570;2023-03-01T14:40:59;19.47;;;12.97;;
1370;SDS011;14306;49.942;11.570;2023-03-01T14:43:33;22.03;;;12.20;;
1370;SDS011;14306;49.942;11.570;2023-03-01T14:46:03;20.10;;;12.90;;
1370;SDS011;14306;49.942;11.570;2023-03-01T14:48:32;20.23;;;13.43;;
1370;SDS011;14306;49.942;11.570;2023-03-01T14:51:00;31.70;;;13.97;;
1370;SDS011;14306;49.942;11.570;2023-03-01T14:53:32;19.90;;;13.60;;
1370;SDS011;14306;49.942;11.570;2023-03-01T14:56:15;24.67;;;14.03;;
1370;SDS011;14306;49.942;11.570;2023-03-01T14:58:47;20.63;;;13.23;;
1370;SDS011;14306;49.942;11.570;2023-03-01T15:01:19;31.03;;;14.83;;
1370;SDS011;14306;49.942;11.570;2023-03-01T15:03:48;25.03;;;15.30;;
1370;SDS011;14306;49.942;11.570;2023-03-01T15:06:19;29.10;;;15.60;;
1370;SDS011;14306;49.942;11.570;2023-03-01T15:08:50;22.60;;;12.87;;
1370;SDS011;14306;49.942;11.570;2023-03-01T15:11:21;25.07;;;14.80;;
1370;SDS011;14306;49.942;11.570;2023-03-01T15:13:54;27.40;;;14.80;;
1370;SDS011;14306;49.942;11.570;2023-03-01T15:16:23;23.17;;;13.93;;
1370;SDS011;14306;49.942;11.570;2023-03-01T15:18:54;26.43;;;16.37;;
1370;SDS011;14306;49.942;11.570;2023-03-01T15:21:26;26.80;;;16.97;;
1370;SDS011;14306;49.942;11.570;2023-03-01T15:24:01;22.60;;;14.50;;